Huvudsida
METAR-TAF:

METAR-TAF

Flygplatser :

Tallinns internationella flygplats

Tallinn, Estland

latitud: 59-23N, longitud: 024-35E, höjd: 44 m

Aktuellt väderrapport

Denna rapport gjordes för 27 minuter sedan, klockan 12:50 UTC
Vind 7 kt från syd
Temperatur 22°C
Fuktighet 57%
Tryck 1014 hPa
Sikt 10 km eller mer
Få moln på en höjd av 3000 ft, Cumulonimbus.
Spridda moln på en höjd av 4500 ft

METAR: EETN 171250Z 18007KT 9999 FEW030CB SCT045 22/13 Q1014 NOSIG

Tid: 16:17 (13:17 UTC)

Väderprognos

Denna rapport gjordes för 1 timme och 47 minuter sedan, klockan 11:30 UTC
Prognos gäller från 17 kl. 12 UTC till 18 kl. 12 UTC
Vind 10 kt från syd/sydväst
Sikt 10 km eller mer
Spridda moln på en höjd av 4000 ft
Sannolikhet 40% :
Temporärt
från 17 kl. 12 UTC till 17 kl. 17 UTC
Spridda moln på en höjd av 3000 ft, Cumulonimbus.
Blir
från 17 kl. 17 UTC till 17 kl. 19 UTC
Vind 7 kt från sydost

TAF: EETN 171130Z 1712/1812 20010KT 9999 SCT040 PROB40 TEMPO 1712/1717 SCT030CB BECMG 1717/1719 14007KT

Aktuella väderrapporter och prognoser från 4000 flygplatser (METAR- och TAF-rapporter).

De tillgängliga stationerna syns som gula och röda prickar på kartan.

För musen över prickarna för att se namnen på stationerna.

Klicka sedan för att få väderrapporter och prognoser.

För att ändra kartan: Klicka på de gröna knapparna med ett svart kors på för att zooma in; den gröna knappen med ett streck på för att zooma ut; eller på de gröna pilarna för angränsande kartor.


METAR-TAF: